createdAt,value
2023-05-15T00:01:45.682Z,29.41
2023-05-15T00:04:12.948Z,30.10
2023-05-15T00:06:39.595Z,29.43
2023-05-15T00:09:06.232Z,30.17
2023-05-15T00:11:32.746Z,30.56
2023-05-15T00:13:59.406Z,30.92
2023-05-15T00:16:25.993Z,30.19
2023-05-15T00:18:53.079Z,30.23
2023-05-15T00:21:19.665Z,30.52
2023-05-15T00:23:47.478Z,30.35
2023-05-15T00:26:15.732Z,29.78
2023-05-15T00:28:42.463Z,30.03
2023-05-15T00:31:09.069Z,29.83
2023-05-15T00:33:35.642Z,29.83
2023-05-15T00:36:03.207Z,29.47
2023-05-15T00:38:30.856Z,29.47
2023-05-15T00:40:57.533Z,29.95
2023-05-15T00:43:26.443Z,29.66
2023-05-15T00:45:54.650Z,29.68
2023-05-15T00:48:23.217Z,29.39
2023-05-15T00:50:51.692Z,29.98
2023-05-15T00:53:18.769Z,29.77
2023-05-15T00:55:46.708Z,29.58
2023-05-15T00:58:14.810Z,29.82
2023-05-15T01:00:43.292Z,30.03
2023-05-15T01:03:10.096Z,29.78
2023-05-15T01:05:37.107Z,29.60
2023-05-15T01:08:26.980Z,30.06
2023-05-15T01:10:55.437Z,30.13
2023-05-15T01:13:23.163Z,30.24
2023-05-15T01:15:50.587Z,30.13
2023-05-15T01:18:17.478Z,29.76
2023-05-15T01:21:04.797Z,30.23
2023-05-15T01:24:02.425Z,30.29
2023-05-15T01:26:50.714Z,30.96
2023-05-15T01:29:25.936Z,31.02
2023-05-15T01:32:02.291Z,31.36
2023-05-15T01:34:43.961Z,31.03
2023-05-15T01:37:13.338Z,31.08
2023-05-15T01:39:44.799Z,31.30
2023-05-15T01:42:15.549Z,30.92
2023-05-15T01:44:49.189Z,31.14
2023-05-15T01:47:21.544Z,30.61
2023-05-15T01:49:50.968Z,30.74
2023-05-15T01:52:28.049Z,30.72
2023-05-15T01:54:55.265Z,30.99
2023-05-15T01:57:23.406Z,30.39
2023-05-15T01:59:51.476Z,30.87
2023-05-15T02:02:19.432Z,30.35
2023-05-15T02:04:47.413Z,30.64
2023-05-15T02:07:15.618Z,30.62
2023-05-15T02:09:43.983Z,30.32
2023-05-15T02:12:11.658Z,31.05
2023-05-15T02:14:41.347Z,30.62
2023-05-15T02:17:08.384Z,31.29
2023-05-15T02:19:35.072Z,31.43
2023-05-15T02:22:05.505Z,30.99
2023-05-15T02:24:33.331Z,31.51
2023-05-15T02:27:20.397Z,31.47
2023-05-15T02:29:55.044Z,31.22
2023-05-15T02:32:39.880Z,30.89
2023-05-15T02:35:17.916Z,30.92
2023-05-15T02:37:48.360Z,30.94
2023-05-15T02:40:16.225Z,31.14
2023-05-15T02:42:45.703Z,31.36
2023-05-15T02:45:12.963Z,31.49
2023-05-15T02:47:40.725Z,31.50
2023-05-15T02:50:08.751Z,30.91
2023-05-15T02:52:35.601Z,31.27
2023-05-15T02:55:02.416Z,31.22
2023-05-15T02:57:29.394Z,31.54
2023-05-15T02:59:57.504Z,31.10
2023-05-15T03:02:24.474Z,31.13
2023-05-15T03:04:51.242Z,31.40
2023-05-15T03:07:17.883Z,31.01
2023-05-15T03:09:44.548Z,31.49
2023-05-15T03:12:11.515Z,31.22
2023-05-15T03:14:38.090Z,31.41
2023-05-15T03:17:05.081Z,30.75
2023-05-15T03:19:32.396Z,31.27
2023-05-15T03:22:00.220Z,30.55
2023-05-15T03:24:26.806Z,31.01
2023-05-15T03:26:54.125Z,31.00
2023-05-15T03:29:20.703Z,31.34
2023-05-15T03:31:47.408Z,31.59
2023-05-15T03:34:13.945Z,31.60
2023-05-15T03:36:40.960Z,31.61
2023-05-15T03:39:07.592Z,31.62
2023-05-15T03:41:34.512Z,31.18
2023-05-15T03:44:01.108Z,31.23
2023-05-15T03:46:31.325Z,30.72
2023-05-15T03:48:58.309Z,31.21
2023-05-15T03:51:26.381Z,31.24
2023-05-15T03:53:54.160Z,31.08
2023-05-15T03:56:22.991Z,30.84
2023-05-15T03:58:49.561Z,30.65
2023-05-15T04:01:16.102Z,30.59
2023-05-15T04:03:42.776Z,30.90
2023-05-15T04:06:09.660Z,30.57
2023-05-15T04:08:36.164Z,30.94
2023-05-15T04:11:03.251Z,30.61
2023-05-15T04:13:29.815Z,30.59
2023-05-15T04:15:56.505Z,30.35
2023-05-15T04:18:23.093Z,30.46
2023-05-15T04:20:49.737Z,30.79
2023-05-15T04:23:16.686Z,30.13
2023-05-15T04:25:46.485Z,30.53
2023-05-15T04:28:13.645Z,30.10
2023-05-15T04:30:40.224Z,30.31
2023-05-15T04:33:07.254Z,30.56
2023-05-15T04:35:34.169Z,30.41
2023-05-15T04:38:00.984Z,30.70
2023-05-15T04:40:27.574Z,30.69
2023-05-15T04:42:54.406Z,30.42
2023-05-15T04:45:21.525Z,30.76
2023-05-15T04:47:48.154Z,30.34
2023-05-15T04:50:14.885Z,30.61
2023-05-15T04:52:43.096Z,30.30
2023-05-15T04:55:09.816Z,30.32
2023-05-15T04:57:36.350Z,30.70
2023-05-15T05:00:10.197Z,30.36
2023-05-15T05:02:36.773Z,30.10
2023-05-15T05:05:03.967Z,30.04
2023-05-15T05:07:30.636Z,30.01
2023-05-15T05:09:57.347Z,30.20
2023-05-15T05:12:25.921Z,30.50
2023-05-15T05:14:55.344Z,30.39
2023-05-15T05:17:22.066Z,30.33
2023-05-15T05:19:48.827Z,29.98
2023-05-15T05:22:18.248Z,30.18
2023-05-15T05:24:44.795Z,30.35
2023-05-15T05:27:11.674Z,30.11
2023-05-15T05:29:39.849Z,30.06
2023-05-15T05:32:07.373Z,29.82
2023-05-15T05:34:34.359Z,30.58
2023-05-15T05:37:00.957Z,30.02
2023-05-15T05:39:27.497Z,29.98
2023-05-15T05:41:54.010Z,30.15
2023-05-15T05:44:20.579Z,30.22
2023-05-15T05:46:47.494Z,30.41
2023-05-15T05:49:14.028Z,29.63
2023-05-15T05:51:40.600Z,29.71
2023-05-15T05:54:07.145Z,29.87
2023-05-15T05:56:33.687Z,29.96
2023-05-15T05:59:01.931Z,29.79
2023-05-15T06:01:29.107Z,29.92
2023-05-15T06:03:55.977Z,29.26
2023-05-15T06:06:22.838Z,29.40
2023-05-15T06:08:49.410Z,29.50
2023-05-15T06:11:16.089Z,29.40
2023-05-15T06:13:43.411Z,29.39
2023-05-15T06:16:10.506Z,29.65
2023-05-15T06:18:37.143Z,28.96
2023-05-15T06:21:03.897Z,28.97
2023-05-15T06:23:30.514Z,28.91
2023-05-15T06:25:57.145Z,28.84
2023-05-15T06:28:23.721Z,29.13
2023-05-15T06:30:50.350Z,29.21
2023-05-15T06:33:16.957Z,28.28
2023-05-15T06:35:43.673Z,27.80
2023-05-15T06:38:10.254Z,28.02
2023-05-15T06:40:36.825Z,27.69
2023-05-15T06:43:04.371Z,27.47
2023-05-15T06:45:31.358Z,26.83
2023-05-15T06:48:00.036Z,27.07
2023-05-15T06:50:28.106Z,27.00
2023-05-15T06:52:55.024Z,25.35
2023-05-15T06:55:21.539Z,25.42
2023-05-15T06:57:48.108Z,26.08
2023-05-15T07:00:15.142Z,23.78
2023-05-15T07:02:41.754Z,23.41
2023-05-15T07:05:08.808Z,22.41
2023-05-15T07:07:35.634Z,20.38
2023-05-15T07:10:02.141Z,19.71
2023-05-15T07:12:28.743Z,18.80
2023-05-15T07:14:55.308Z,18.01
2023-05-15T07:17:21.985Z,18.08
2023-05-15T07:19:48.819Z,17.58
2023-05-15T07:22:15.433Z,16.87
2023-05-15T07:24:42.304Z,17.60
2023-05-15T07:27:10.410Z,16.32
2023-05-15T07:29:36.946Z,16.63
2023-05-15T07:32:03.771Z,17.08
2023-05-15T07:34:30.405Z,16.59
2023-05-15T07:36:56.938Z,16.54
2023-05-15T07:39:23.628Z,16.26
2023-05-15T07:41:50.303Z,15.94
2023-05-15T07:44:17.343Z,16.38
2023-05-15T07:46:45.446Z,16.45
2023-05-15T07:49:12.234Z,15.78
2023-05-15T07:51:41.897Z,16.04
2023-05-15T07:54:08.408Z,16.89
2023-05-15T07:56:35.235Z,15.90
2023-05-15T07:59:02.195Z,16.46
2023-05-15T08:01:30.568Z,16.06
2023-05-15T08:03:58.474Z,16.18
2023-05-15T08:06:25.225Z,17.18
2023-05-15T08:08:51.714Z,16.51
2023-05-15T08:11:18.954Z,17.24
2023-05-15T08:13:45.535Z,16.76
2023-05-15T08:16:12.702Z,17.47
2023-05-15T08:18:39.270Z,18.42
2023-05-15T08:21:06.691Z,19.94
2023-05-15T08:23:33.251Z,20.92
2023-05-15T08:26:00.197Z,20.94
2023-05-15T08:28:26.716Z,21.50
2023-05-15T08:30:53.275Z,21.29
2023-05-15T08:33:19.770Z,21.39
2023-05-15T08:35:46.335Z,21.10
2023-05-15T08:38:12.918Z,21.48
2023-05-15T08:40:41.433Z,21.89
2023-05-15T08:43:15.564Z,20.94
2023-05-15T08:45:43.596Z,21.35
2023-05-15T08:48:20.273Z,21.16
2023-05-15T08:50:48.858Z,20.48
2023-05-15T08:53:16.071Z,21.74
2023-05-15T08:55:43.033Z,21.32
2023-05-15T08:58:10.420Z,20.88
2023-05-15T09:00:38.686Z,21.00
2023-05-15T09:03:05.879Z,19.11
2023-05-15T09:05:33.430Z,20.09
2023-05-15T09:08:04.051Z,19.72
2023-05-15T09:10:31.846Z,20.16
2023-05-15T09:13:01.849Z,20.62
2023-05-15T09:15:30.596Z,20.52
2023-05-15T09:17:58.123Z,20.41
2023-05-15T09:20:31.561Z,20.30
2023-05-15T09:22:59.545Z,20.16
2023-05-15T09:25:34.458Z,19.90
2023-05-15T09:28:01.199Z,20.79
2023-05-15T09:30:27.921Z,20.80
2023-05-15T09:32:56.495Z,21.38
2023-05-15T09:35:33.518Z,19.77
2023-05-15T09:38:01.774Z,20.20
2023-05-15T09:40:31.081Z,21.27
2023-05-15T09:42:58.560Z,21.02
2023-05-15T09:45:27.221Z,20.33
2023-05-15T09:47:54.244Z,20.67
2023-05-15T09:50:23.985Z,19.91
2023-05-15T09:52:51.773Z,20.86
2023-05-15T09:55:21.355Z,19.95
2023-05-15T09:58:13.983Z,18.94
2023-05-15T10:00:48.051Z,19.25
2023-05-15T10:03:19.522Z,20.40
2023-05-15T10:05:46.378Z,20.10
2023-05-15T10:08:14.836Z,20.63
2023-05-15T10:10:41.962Z,20.74
2023-05-15T10:13:10.004Z,20.66
2023-05-15T10:15:37.251Z,19.95
2023-05-15T10:18:04.900Z,20.16
2023-05-15T10:20:35.285Z,20.41
2023-05-15T10:23:04.845Z,19.89
2023-05-15T10:25:53.178Z,20.36
2023-05-15T10:28:20.329Z,19.53
2023-05-15T10:30:48.038Z,20.34
2023-05-15T10:33:15.534Z,20.38
2023-05-15T10:35:42.816Z,20.66
2023-05-15T10:38:14.052Z,20.13
2023-05-15T10:40:41.261Z,19.45
2023-05-15T10:43:09.372Z,20.03
2023-05-15T10:45:36.180Z,20.76
2023-05-15T10:48:05.428Z,20.87
2023-05-15T10:50:32.266Z,20.04
2023-05-15T10:53:00.370Z,20.32
2023-05-15T10:55:27.149Z,21.11
2023-05-15T10:57:55.228Z,21.11
2023-05-15T11:00:27.222Z,21.25
2023-05-15T11:02:56.492Z,20.37
2023-05-15T11:05:24.326Z,20.89
2023-05-15T11:08:15.761Z,21.53
2023-05-15T11:10:42.426Z,21.36
2023-05-15T11:13:09.157Z,21.15
2023-05-15T11:15:44.077Z,21.90
2023-05-15T11:18:10.855Z,21.97
2023-05-15T11:20:40.338Z,22.13
2023-05-15T11:23:07.134Z,22.02
2023-05-15T11:25:35.646Z,22.10
2023-05-15T11:28:05.338Z,22.64
2023-05-15T11:30:41.489Z,22.27
2023-05-15T11:33:13.280Z,22.71
2023-05-15T11:35:47.973Z,23.05
2023-05-15T11:38:16.595Z,21.26
2023-05-15T11:40:47.700Z,21.65
2023-05-15T11:43:22.186Z,21.09
2023-05-15T11:45:56.066Z,21.47
2023-05-15T11:48:24.787Z,22.12
2023-05-15T11:50:54.219Z,22.79
2023-05-15T11:53:23.046Z,21.74
2023-05-15T11:55:52.767Z,21.35
2023-05-15T11:58:23.082Z,22.19
2023-05-15T12:00:51.564Z,21.51
2023-05-15T12:03:23.888Z,22.56
2023-05-15T12:05:58.886Z,21.42
2023-05-15T12:08:30.576Z,23.10
2023-05-15T12:10:58.799Z,23.66
2023-05-15T12:13:25.385Z,22.77
2023-05-15T12:15:52.022Z,23.00
2023-05-15T12:18:18.644Z,22.98
2023-05-15T12:20:46.688Z,23.63
2023-05-15T12:23:17.318Z,23.15
2023-05-15T12:25:46.696Z,22.69
2023-05-15T12:28:14.474Z,23.23
2023-05-15T12:30:42.294Z,23.87
2023-05-15T12:33:10.808Z,23.48
2023-05-15T12:35:42.067Z,23.71
2023-05-15T12:38:13.796Z,23.34
2023-05-15T12:40:40.820Z,23.50
2023-05-15T12:43:08.703Z,24.02
2023-05-15T12:45:38.755Z,24.98
2023-05-15T12:48:07.182Z,25.91
2023-05-15T12:50:35.720Z,26.22
2023-05-15T12:53:04.019Z,26.61
2023-05-15T12:55:33.063Z,27.27
2023-05-15T12:58:02.248Z,28.02
2023-05-15T13:00:29.584Z,26.84
2023-05-15T13:02:57.694Z,27.00
2023-05-15T13:05:28.936Z,26.64
2023-05-15T13:07:57.950Z,26.92
2023-05-15T13:10:25.432Z,26.58
2023-05-15T13:12:53.860Z,26.65
2023-05-15T13:15:25.929Z,26.69
2023-05-15T13:18:03.742Z,26.53
2023-05-15T13:20:41.140Z,25.59
2023-05-15T13:23:08.955Z,25.71
2023-05-15T13:25:35.880Z,27.11
2023-05-15T13:28:05.750Z,26.17
2023-05-15T13:30:34.380Z,26.38
2023-05-15T13:33:01.713Z,26.56
2023-05-15T13:35:28.522Z,26.74
2023-05-15T13:37:56.338Z,26.07
2023-05-15T13:40:23.055Z,25.87
2023-05-15T13:42:50.148Z,25.81
2023-05-15T13:45:17.110Z,25.22
2023-05-15T13:47:44.457Z,24.74
2023-05-15T13:50:15.247Z,24.22
2023-05-15T13:52:43.838Z,24.26
2023-05-15T13:55:11.089Z,24.37
2023-05-15T13:57:41.622Z,25.17
2023-05-15T14:00:13.401Z,23.72
2023-05-15T14:02:41.841Z,24.61
2023-05-15T14:05:09.944Z,23.56
2023-05-15T14:07:37.294Z,24.06
2023-05-15T14:10:05.073Z,23.90
2023-05-15T14:12:32.497Z,23.72
2023-05-15T14:15:00.058Z,23.62
2023-05-15T14:17:27.840Z,22.85
2023-05-15T14:19:54.720Z,22.83
2023-05-15T14:22:24.657Z,23.08
2023-05-15T14:24:55.137Z,23.09
2023-05-15T14:27:21.722Z,22.69
2023-05-15T14:29:49.152Z,23.17
2023-05-15T14:32:16.615Z,22.68
2023-05-15T14:34:43.507Z,23.26
2023-05-15T14:37:10.248Z,23.49
2023-05-15T14:39:37.110Z,23.55
2023-05-15T14:42:04.091Z,22.99
2023-05-15T14:44:30.744Z,23.27
2023-05-15T14:47:12.704Z,22.28
2023-05-15T14:49:40.008Z,23.26
2023-05-15T14:52:12.152Z,23.25
2023-05-15T14:54:40.272Z,23.52
2023-05-15T14:57:07.528Z,24.57
2023-05-15T14:59:34.576Z,24.38
2023-05-15T15:02:01.415Z,23.99
2023-05-15T15:04:30.535Z,23.98
2023-05-15T15:06:57.324Z,24.39
2023-05-15T15:09:25.551Z,23.72
2023-05-15T15:11:53.661Z,24.00
2023-05-15T15:14:20.359Z,23.63
2023-05-15T15:16:47.080Z,25.70
2023-05-15T15:19:16.065Z,25.44
2023-05-15T15:21:44.613Z,25.94
2023-05-15T15:24:11.165Z,26.42
2023-05-15T15:26:37.796Z,27.16
2023-05-15T15:29:04.498Z,27.29
2023-05-15T15:31:32.058Z,27.19
2023-05-15T15:33:59.275Z,27.76
2023-05-15T15:36:25.896Z,27.81
2023-05-15T15:38:52.624Z,27.34
2023-05-15T15:41:21.268Z,28.72
2023-05-15T15:43:47.979Z,28.39
2023-05-15T15:46:14.585Z,28.64
2023-05-15T15:48:41.472Z,29.21
2023-05-15T15:51:08.592Z,28.97
2023-05-15T15:53:35.309Z,29.77
2023-05-15T15:56:01.901Z,29.27
2023-05-15T15:58:29.461Z,29.12
2023-05-15T16:00:56.033Z,28.73
2023-05-15T16:03:23.926Z,28.89
2023-05-15T16:05:51.405Z,28.48
2023-05-15T16:08:18.000Z,28.25
2023-05-15T16:10:44.745Z,28.27
2023-05-15T16:13:11.938Z,28.49
2023-05-15T16:15:38.959Z,28.76
2023-05-15T16:18:05.924Z,29.08
2023-05-15T16:20:34.915Z,29.03
2023-05-15T16:23:02.189Z,30.58
2023-05-15T16:25:31.375Z,29.86
2023-05-15T16:27:57.906Z,29.75
2023-05-15T16:30:33.864Z,29.91
2023-05-15T16:33:07.461Z,30.21
2023-05-15T16:35:36.614Z,29.14
2023-05-15T16:38:04.047Z,29.17
2023-05-15T16:40:30.759Z,28.42
2023-05-15T16:43:00.459Z,27.99
2023-05-15T16:45:27.296Z,28.91
2023-05-15T16:47:54.583Z,29.51
2023-05-15T16:50:21.332Z,29.32
2023-05-15T16:52:49.288Z,30.62
2023-05-15T16:55:17.600Z,29.69
2023-05-15T16:57:45.933Z,30.15
2023-05-15T17:00:13.533Z,29.90
2023-05-15T17:02:42.059Z,30.13
2023-05-15T17:05:10.098Z,28.90
2023-05-15T17:07:37.864Z,29.16
2023-05-15T17:10:06.026Z,28.97
2023-05-15T17:12:32.974Z,29.82
2023-05-15T17:14:59.599Z,28.92
2023-05-15T17:17:26.513Z,29.16
2023-05-15T17:19:53.643Z,29.56
2023-05-15T17:22:20.887Z,29.71
2023-05-15T17:24:50.958Z,29.46
2023-05-15T17:27:19.120Z,31.35
2023-05-15T17:29:45.955Z,30.93
2023-05-15T17:32:12.953Z,30.86
2023-05-15T17:34:39.627Z,30.54
2023-05-15T17:37:06.293Z,29.26
2023-05-15T17:39:33.201Z,29.44
2023-05-15T17:42:00.147Z,29.59
2023-05-15T17:44:29.564Z,30.34
2023-05-15T17:46:57.596Z,30.07
2023-05-15T17:49:24.662Z,30.16
2023-05-15T17:51:51.589Z,31.01
2023-05-15T17:54:18.818Z,30.21
2023-05-15T17:56:45.980Z,30.39
2023-05-15T17:59:12.721Z,30.16
2023-05-15T18:01:39.463Z,31.28
2023-05-15T18:04:06.550Z,31.25
2023-05-15T18:06:36.118Z,31.32
2023-05-15T18:09:03.204Z,31.22
2023-05-15T18:11:29.972Z,32.01
2023-05-15T18:13:56.773Z,31.92
2023-05-15T18:16:23.944Z,32.16
2023-05-15T18:18:52.001Z,32.03
2023-05-15T18:21:19.116Z,31.77
2023-05-15T18:23:45.889Z,31.34
2023-05-15T18:26:13.288Z,30.88
2023-05-15T18:28:40.072Z,30.96
2023-05-15T18:31:07.193Z,31.41
2023-05-15T18:33:36.617Z,32.25
2023-05-15T18:36:05.949Z,32.84
2023-05-15T18:38:34.240Z,33.05
2023-05-15T18:41:00.955Z,33.32
2023-05-15T18:43:28.494Z,34.49
2023-05-15T18:45:55.500Z,34.40
2023-05-15T18:48:22.225Z,34.36
2023-05-15T18:50:49.458Z,35.38
2023-05-15T18:53:16.480Z,35.48
2023-05-15T18:55:43.251Z,35.75
2023-05-15T18:58:10.240Z,34.76
2023-05-15T19:00:38.833Z,36.22
2023-05-15T19:03:08.463Z,37.08
2023-05-15T19:05:35.742Z,37.35
2023-05-15T19:08:03.105Z,36.91
2023-05-15T19:10:30.465Z,35.84
2023-05-15T19:12:57.935Z,36.01
2023-05-15T19:15:25.531Z,35.18
2023-05-15T19:17:52.883Z,35.66
2023-05-15T19:20:20.249Z,34.94
2023-05-15T19:22:46.920Z,34.88
2023-05-15T19:25:13.777Z,35.40
2023-05-15T19:27:40.602Z,35.91
2023-05-15T19:30:09.161Z,34.30
2023-05-15T19:32:36.180Z,34.20
2023-05-15T19:35:03.079Z,35.03
2023-05-15T19:37:29.712Z,35.12
2023-05-15T19:39:56.682Z,34.61
2023-05-15T19:42:23.417Z,35.11
2023-05-15T19:44:50.187Z,35.56
2023-05-15T19:47:16.982Z,35.31
2023-05-15T19:49:43.678Z,34.98
2023-05-15T19:52:10.388Z,34.09
2023-05-15T19:54:37.062Z,34.21
2023-05-15T19:57:03.915Z,34.75
2023-05-15T19:59:30.657Z,34.37
2023-05-15T20:01:58.318Z,34.67
2023-05-15T20:04:25.918Z,34.78
2023-05-15T20:06:52.896Z,34.85
2023-05-15T20:09:19.621Z,34.97
2023-05-15T20:11:46.611Z,34.82
2023-05-15T20:14:15.113Z,34.76
2023-05-15T20:16:41.922Z,35.02
2023-05-15T20:19:11.015Z,34.94
2023-05-15T20:21:38.582Z,34.68
2023-05-15T20:24:05.937Z,34.23
2023-05-15T20:26:32.774Z,34.06
2023-05-15T20:28:59.487Z,33.94
2023-05-15T20:31:26.677Z,35.68
2023-05-15T20:33:57.057Z,37.05
2023-05-15T20:36:25.668Z,38.01
2023-05-15T20:38:52.749Z,38.46
2023-05-15T20:41:21.538Z,38.67
2023-05-15T20:43:49.657Z,37.61
2023-05-15T20:46:16.944Z,37.19
2023-05-15T20:48:43.714Z,37.30
2023-05-15T20:51:10.384Z,36.35
2023-05-15T20:53:37.008Z,38.14
2023-05-15T20:56:03.612Z,37.34
2023-05-15T20:58:30.169Z,38.18
2023-05-15T21:01:00.701Z,36.90
2023-05-15T21:03:27.608Z,36.00
2023-05-15T21:05:56.086Z,37.94
2023-05-15T21:08:23.993Z,36.78
2023-05-15T21:10:52.991Z,36.92
2023-05-15T21:13:20.004Z,37.98
2023-05-15T21:15:46.698Z,37.00
2023-05-15T21:18:13.266Z,37.30
2023-05-15T21:20:40.356Z,37.77
2023-05-15T21:23:07.636Z,38.16
2023-05-15T21:25:34.465Z,37.56
2023-05-15T21:28:01.224Z,37.39
2023-05-15T21:30:28.047Z,36.54
2023-05-15T21:32:54.872Z,37.89
2023-05-15T21:35:21.596Z,36.80
2023-05-15T21:37:48.208Z,35.87
2023-05-15T21:40:14.858Z,36.40
2023-05-15T21:42:42.974Z,37.53
2023-05-15T21:45:09.688Z,37.17
2023-05-15T21:47:36.931Z,36.50
2023-05-15T21:50:03.803Z,35.82
2023-05-15T21:52:30.933Z,35.81
2023-05-15T21:54:57.639Z,35.65
2023-05-15T21:57:24.353Z,37.22
2023-05-15T21:59:51.107Z,36.86
2023-05-15T22:02:17.635Z,35.37
2023-05-15T22:04:44.301Z,34.97
2023-05-15T22:07:11.177Z,35.40
2023-05-15T22:09:37.899Z,36.16
2023-05-15T22:12:04.720Z,37.42
2023-05-15T22:14:31.565Z,37.38
2023-05-15T22:16:58.275Z,37.58
2023-05-15T22:19:33.013Z,37.45
2023-05-15T22:22:01.236Z,37.81
2023-05-15T22:24:27.886Z,38.46
2023-05-15T22:26:54.855Z,36.99
2023-05-15T22:29:21.792Z,37.76
2023-05-15T22:31:48.518Z,38.10
2023-05-15T22:34:15.174Z,38.89
2023-05-15T22:36:41.893Z,38.61
2023-05-15T22:39:08.882Z,38.87
2023-05-15T22:41:35.420Z,39.03
2023-05-15T22:44:02.826Z,38.46
2023-05-15T22:46:29.563Z,39.79
2023-05-15T22:48:58.965Z,40.18
2023-05-15T22:51:25.932Z,39.00
2023-05-15T22:53:52.551Z,38.67
2023-05-15T22:56:19.133Z,39.01
2023-05-15T22:58:45.960Z,39.48
2023-05-15T23:01:12.885Z,39.04
2023-05-15T23:03:39.514Z,38.60
2023-05-15T23:06:06.281Z,38.24
2023-05-15T23:08:32.789Z,38.41
2023-05-15T23:10:59.352Z,38.19
2023-05-15T23:13:25.998Z,38.42
2023-05-15T23:15:52.858Z,38.87
2023-05-15T23:18:19.502Z,39.03
2023-05-15T23:20:46.468Z,39.31
2023-05-15T23:23:13.065Z,38.94
2023-05-15T23:25:40.027Z,38.56
2023-05-15T23:28:06.579Z,39.17
2023-05-15T23:30:33.185Z,39.13
2023-05-15T23:32:59.789Z,40.89
2023-05-15T23:35:26.475Z,37.76
2023-05-15T23:37:53.027Z,37.40
2023-05-15T23:40:19.625Z,38.46
2023-05-15T23:42:46.718Z,38.06
2023-05-15T23:45:16.688Z,36.94
2023-05-15T23:47:43.340Z,37.38
2023-05-15T23:50:10.044Z,37.63
2023-05-15T23:52:36.659Z,38.33
2023-05-15T23:55:03.421Z,36.76
2023-05-15T23:57:30.451Z,37.02
2023-05-15T23:59:57.425Z,36.84
